Terminal Aerodrome Forecast
Issued by NWS

Home | Current Version | Previous Version | Text Only | Print | Product List | Glossary On
Versions: 1 2 3 4 5 6 7 8 9 10 11 12 13 14 15 16 17
000
FTUS43 KSGF 302300
TAFBBG
TAF
KBBG 302320Z 3100/3124 18007KT P6SM SCT040
     FM310200 VRB04KT P6SM SCT250
     FM311000 VRB04KT 5SM BR SCT250
     FM311400 19006KT P6SM FEW080 SCT250=

USA.gov is the U.S. government's official web portal to all federal, state and local government web resources and services.